KRAP/RAP METAR and TAF weather

Enter ICAO airport designator
Station Type Date Time Source
KRAP METAR 2020/01/19 22:52 UTC NOAA

KRAP 192252Z 10005KT 10SM CLR M06/M12 A3039 RMK AO2 SLP350 T10561122 $


Station Type Date Time Source
KRAP Decoded METAR 2020/01/19 22:52 UTC NOAA

RAPID CITY REGIONAL AIRPORT , SD, United States (KRAP) 44-03N 103-03W 965M
Jan 19, 2020 - 05:52 PM EST / 2020.01.19 2252 UTC
Wind: from the E (100 degrees) at 6 MPH (5 KT):0
Visibility: 10 mile(s):0
Sky conditions: clear
Temperature: 21.9 F (-5.6 C)
Windchill: 14 F (-10 C):1
Dew Point: 10.0 F (-12.2 C)
Relative Humidity: 59%
Pressure (altimeter): 30.39 in. Hg (1029 hPa)
ob: KRAP 192252Z 10005KT 10SM CLR M06/M12 A3039 RMK AO2 SLP350 T10561122
cycle: 23

Station Type Date Time Source
KRAP TAF 2020/01/19 18:22 UTC NOAA

TAF KRAP 191720Z 1918/2018 VRB05KT P6SM SCT200

Example: see airport list